createdAt,value
2018-08-27T00:00:05.536Z,19
2018-08-27T00:15:05.308Z,19.1
2018-08-27T00:30:05.426Z,19.1
2018-08-27T00:45:05.195Z,19.1
2018-08-27T01:00:05.086Z,19.1
2018-08-27T01:15:04.969Z,19
2018-08-27T01:30:05.086Z,19.1
2018-08-27T01:45:04.853Z,19.1
2018-08-27T02:00:05.052Z,19.1
2018-08-27T02:15:04.792Z,19.1
2018-08-27T02:30:05.468Z,19.1
2018-08-27T02:45:04.734Z,19.1
2018-08-27T03:00:04.810Z,19.1
2018-08-27T03:15:04.812Z,19.1
2018-08-27T03:30:04.929Z,19.2
2018-08-27T03:45:04.413Z,19.1
2018-08-27T04:00:05.119Z,19.1
2018-08-27T04:15:04.600Z,19.1
2018-08-27T04:30:05.314Z,19.2
2018-08-27T04:45:04.419Z,19.2
2018-08-27T05:00:04.373Z,19.2
2018-08-27T05:15:04.311Z,19.2
2018-08-27T05:45:04.274Z,19.2
2018-08-27T06:00:04.191Z,19.3
2018-08-27T06:15:04.846Z,19.3
2018-08-27T06:30:05.084Z,19.4
2018-08-27T06:45:05.013Z,19.6
2018-08-27T07:00:04.934Z,19.9
2018-08-27T07:15:04.513Z,20.3
2018-08-27T07:30:05.117Z,20.5
2018-08-27T07:45:05.075Z,21
2018-08-27T08:00:05.081Z,21.8
2018-08-27T08:15:05.104Z,21.6
2018-08-27T08:30:04.275Z,21.9
2018-08-27T08:45:04.675Z,21.7
2018-08-27T09:00:05.122Z,22.2
2018-08-27T09:15:04.582Z,23
2018-08-27T09:30:04.711Z,24.5
2018-08-27T09:45:05.123Z,25.1
2018-08-27T10:00:04.600Z,23.7
2018-08-27T10:15:04.632Z,23.7
2018-08-27T10:30:05.091Z,23.6
2018-08-27T10:45:04.588Z,23.7
2018-08-27T11:00:04.889Z,23.7
2018-08-27T11:15:05.062Z,23.7
2018-08-27T11:30:04.776Z,23.8
2018-08-27T11:45:04.875Z,23.8
2018-08-27T12:00:04.337Z,24.1
2018-08-27T12:15:04.247Z,24.2
2018-08-27T12:30:04.877Z,24.3
2018-08-27T12:45:04.378Z,24.3
2018-08-27T13:00:04.352Z,24.4
2018-08-27T13:15:04.769Z,24.6
2018-08-27T13:30:04.920Z,24.7
2018-08-27T13:45:04.630Z,24.9
2018-08-27T14:00:05.358Z,25
2018-08-27T14:15:05.285Z,25.1
2018-08-27T14:30:05.014Z,25.2
2018-08-27T14:45:04.980Z,25.3
2018-08-27T15:00:04.641Z,25.3
2018-08-27T15:15:05.282Z,25.5
2018-08-27T15:30:04.554Z,25.5
2018-08-27T15:45:05.153Z,25.6
2018-08-27T16:00:05.258Z,25.5
2018-08-27T16:15:05.578Z,25.6
2018-08-27T16:30:04.517Z,25.6
2018-08-27T16:45:05.348Z,25.6
2018-08-27T17:00:04.870Z,25.8
2018-08-27T17:15:05.280Z,25.8
2018-08-27T17:30:04.688Z,25.9
2018-08-27T17:45:04.896Z,25.9
2018-08-27T18:00:05.174Z,25.8
2018-08-27T18:15:05.275Z,25.8
2018-08-27T18:30:05.318Z,25.7
2018-08-27T18:45:04.819Z,25.6
2018-08-27T19:00:04.908Z,25.5
2018-08-27T19:15:04.690Z,25.4
2018-08-27T19:30:04.734Z,25.4
2018-08-27T19:45:04.866Z,25.3
2018-08-27T20:00:04.990Z,25.2
2018-08-27T20:15:04.417Z,25.2
2018-08-27T20:30:04.864Z,25.2
2018-08-27T20:45:04.666Z,25.1
2018-08-27T21:00:05.093Z,24.9
2018-08-27T21:15:04.834Z,24.9
2018-08-27T21:30:05.238Z,24.9
2018-08-27T21:45:07.943Z,24.8
2018-08-27T22:00:08.030Z,24.6
2018-08-27T22:15:05.031Z,24.5
2018-08-27T22:30:05.090Z,24.4
2018-08-27T22:45:04.540Z,24.2
2018-08-27T23:00:04.440Z,24.1
2018-08-27T23:15:05.081Z,24
2018-08-27T23:30:04.792Z,23.9
2018-08-27T23:45:04.410Z,23.8
